Tuesday, June 30, 2015, 4:17 AM EDT
Back to Local

KHWV, Shirley Brookhaven Airport

Location: Shirley, NY, United States Lat: 40.817
Local Time: 4:17 AM EDT ( 8:17 GMT) Lon: -72.867
Time Zone: US/Eastern Elev: 82 ft

Show me the last for .
Show Coded

Time T Td Feel RH Dir Speed Gust Alt SLP Vis Weather Sky Remarks
2015-06-30 02:56 67 62 - 84 200° 5 - 29.97 29.97 10 CLR None
2015-06-30 01:56 66 62 - 87 210° 5 - 29.97 29.96 10 CLR 6-hr Min Temp (2am): 62.1°F
6-hr Max Temp (2am): 71.1°F
2015-06-30 00:56 66 62 - 87 200° 3 - 29.97 29.96 10 CLR 24-hr Min Temp (1am): 61.0°F
24-hr Max Temp (1am): 75.0°F
2015-06-29 23:56 66 62 - 87 - Calm - 29.97 29.96 10 CLR None
2015-06-29 22:56 66 62 - 87 190° 5 - 29.97 29.96 10 CLR None
2015-06-29 21:56 67 63 - 87 190° 5 - 29.96 29.96 10 CLR None
2015-06-29 20:56 68 61 - 78 200° 7 - 29.94 29.93 10 CLR None
2015-06-29 19:56 71 60 76 68 210° 6 - 29.93 29.93 10 CLR 6-hr Min Temp (8pm): 71.1°F
6-hr Max Temp (8pm): 75.0°F
2015-06-29 18:56 72 60 76 66 220° 8 - 29.93 29.92 10 CLR None
2015-06-29 17:56 74 59 77 59 220° 10 - 29.91 29.91 10 FEW060 None
2015-06-29 16:56 73 58 77 59 230° 13 22 29.91 29.90 10 BKN055 None
2015-06-29 14:56 73 59 77 61 230° 10 18 29.91 29.90 10 FEW037 OVC055 None
2015-06-29 13:56 74 58 77 57 230° 14 - 29.89 29.89 10 BKN042 6-hr Min Temp (2pm): 66.9°F
6-hr Max Temp (2pm): 75.0°F
2015-06-29 12:56 74 56 77 53 280° 12 - 29.89 29.89 10 BKN038 BKN048 None
2015-06-29 10:56 73 57 77 57 250° 12 - 29.88 29.88 10 FEW033 None
2015-06-29 09:56 70 56 - 61 280° 12 - 29.87 29.86 10 CLR None
2015-06-29 09:38 70 56 - 61 270° 10 - 29.87 - 10 FEW029 None
2015-06-29 09:09 69 56 - 62 270° 13 - 29.87 - 10 BKN028 None
2015-06-29 08:56 69 56 - 62 270° 10 - 29.86 29.85 10 SCT027 None
2015-06-29 07:56 66 56 - 69 260° 10 - 29.86 29.85 10 CLR 24-hr Precip Total (8am): 0.01"
6-hr Min Temp (8am): 61.0°F
6-hr Max Temp (8am): 66.9°F
2015-06-29 06:56 64 56 - 74 270° 8 - 29.84 29.84 10 CLR None
2015-06-29 05:56 62 57 - 83 250° 6 - 29.83 29.82 10 CLR None
2015-06-29 04:56 62 58 - 86 270° 6 - 29.80 29.80 10 CLR None

Support USWX by starting your Amazon purchase here.